createdAt,value
2019-02-14T00:01:08.239Z,68.44
2019-02-14T00:03:35.908Z,69.00
2019-02-14T00:06:03.562Z,69.15
2019-02-14T00:08:31.206Z,68.46
2019-02-14T00:10:58.867Z,68.18
2019-02-14T00:13:26.518Z,68.83
2019-02-14T00:15:54.172Z,68.67
2019-02-14T00:18:21.824Z,68.87
2019-02-14T00:20:49.481Z,69.06
2019-02-14T00:23:17.142Z,68.99
2019-02-14T00:25:44.796Z,68.89
2019-02-14T00:28:12.450Z,68.27
2019-02-14T00:30:40.097Z,68.21
2019-02-14T00:33:07.751Z,68.45
2019-02-14T00:35:35.478Z,67.81
2019-02-14T00:38:03.125Z,67.86
2019-02-14T00:40:30.777Z,67.65
2019-02-14T00:42:58.427Z,67.66
2019-02-14T00:45:26.086Z,67.80
2019-02-14T00:47:53.732Z,67.60
2019-02-14T00:50:21.373Z,67.18
2019-02-14T00:52:49.033Z,67.56
2019-02-14T00:55:16.678Z,67.55
2019-02-14T00:57:44.335Z,68.01
2019-02-14T01:00:11.981Z,67.45
2019-02-14T01:02:39.638Z,68.54
2019-02-14T01:05:07.288Z,68.24
2019-02-14T01:07:34.939Z,68.68
2019-02-14T01:10:02.604Z,68.65
2019-02-14T01:12:30.255Z,68.25
2019-02-14T01:14:57.904Z,69.04
2019-02-14T01:17:25.558Z,69.41
2019-02-14T01:19:53.217Z,67.90
2019-02-14T01:22:20.873Z,68.54
2019-02-14T01:24:48.523Z,68.80
2019-02-14T01:27:16.185Z,69.42
2019-02-14T01:29:43.829Z,68.60
2019-02-14T01:32:11.562Z,69.31
2019-02-14T01:34:39.374Z,69.74
2019-02-14T01:37:07.049Z,70.04
2019-02-14T01:39:34.702Z,69.91
2019-02-14T01:42:02.361Z,69.39
2019-02-14T01:44:30.021Z,68.50
2019-02-14T01:46:57.679Z,68.78
2019-02-14T01:49:25.332Z,68.27
2019-02-14T01:51:52.968Z,67.98
2019-02-14T01:54:20.624Z,68.12
2019-02-14T01:56:48.269Z,67.82
2019-02-14T01:59:15.927Z,67.68
2019-02-14T02:01:43.584Z,68.18
2019-02-14T02:04:11.245Z,67.39
2019-02-14T02:06:38.892Z,66.98
2019-02-14T02:09:07.235Z,66.99
2019-02-14T02:11:34.877Z,66.49
2019-02-14T02:14:02.581Z,66.62
2019-02-14T02:16:30.352Z,66.34
2019-02-14T02:18:57.997Z,66.59
2019-02-14T02:21:25.658Z,66.10
2019-02-14T02:23:53.304Z,66.66
2019-02-14T02:26:20.949Z,66.23
2019-02-14T02:28:48.602Z,66.39
2019-02-14T02:31:16.251Z,66.90
2019-02-14T02:33:43.909Z,66.59
2019-02-14T02:36:11.562Z,66.05
2019-02-14T02:38:39.223Z,66.50
2019-02-14T02:41:06.861Z,66.51
2019-02-14T02:43:34.501Z,64.78
2019-02-14T02:46:02.155Z,65.66
2019-02-14T02:48:29.796Z,65.92
2019-02-14T02:50:57.446Z,66.64
2019-02-14T02:53:25.101Z,66.70
2019-02-14T02:55:52.749Z,66.72
2019-02-14T02:58:20.402Z,66.41
2019-02-14T03:00:48.059Z,65.41
2019-02-14T03:03:15.734Z,65.04
2019-02-14T03:05:43.442Z,65.54
2019-02-14T03:08:11.096Z,65.32
2019-02-14T03:10:38.829Z,64.27
2019-02-14T03:13:06.475Z,64.42
2019-02-14T03:15:34.120Z,64.63
2019-02-14T03:18:01.771Z,65.10
2019-02-14T03:20:29.420Z,64.76
2019-02-14T03:22:57.061Z,64.41
2019-02-14T03:25:24.714Z,65.36
2019-02-14T03:27:52.362Z,65.11
2019-02-14T03:30:20.020Z,65.54
2019-02-14T03:32:47.667Z,66.34
2019-02-14T03:35:15.400Z,65.25
2019-02-14T03:37:43.049Z,63.86
2019-02-14T03:40:10.689Z,64.15
2019-02-14T03:42:38.332Z,63.85
2019-02-14T03:45:05.992Z,64.49
2019-02-14T03:47:33.640Z,65.02
2019-02-14T03:50:01.285Z,64.44
2019-02-14T03:52:28.941Z,64.13
2019-02-14T03:54:56.590Z,64.10
2019-02-14T03:57:24.239Z,64.53
2019-02-14T03:59:51.893Z,63.49
2019-02-14T04:02:19.537Z,63.89
2019-02-14T04:04:47.184Z,64.05
2019-02-14T04:07:14.825Z,65.24
2019-02-14T04:09:42.482Z,64.94
2019-02-14T04:12:10.138Z,65.61
2019-02-14T04:14:37.800Z,65.75
2019-02-14T04:17:05.449Z,66.15
2019-02-14T04:19:33.110Z,65.73
2019-02-14T04:22:00.824Z,66.14
2019-02-14T04:24:28.476Z,65.71
2019-02-14T04:26:56.138Z,65.84
2019-02-14T04:29:23.780Z,66.87
2019-02-14T04:31:51.441Z,67.07
2019-02-14T04:34:19.077Z,65.71
2019-02-14T04:36:46.729Z,65.93
2019-02-14T04:39:14.468Z,66.31
2019-02-14T04:41:42.130Z,66.16
2019-02-14T04:44:09.779Z,65.01
2019-02-14T04:46:37.434Z,64.92
2019-02-14T04:49:05.077Z,64.59
2019-02-14T04:51:32.726Z,65.33
2019-02-14T04:54:00.377Z,64.48
2019-02-14T04:56:28.028Z,64.69
2019-02-14T04:58:55.682Z,66.11
2019-02-14T05:01:23.418Z,66.54
2019-02-14T05:03:51.068Z,65.59
2019-02-14T05:06:18.718Z,64.97
2019-02-14T05:08:46.378Z,64.71
2019-02-14T05:11:14.023Z,65.24
2019-02-14T05:13:41.665Z,64.99
2019-02-14T05:16:09.325Z,64.93
2019-02-14T05:18:36.955Z,64.74
2019-02-14T05:21:04.610Z,65.15
2019-02-14T05:23:32.258Z,65.63
2019-02-14T05:25:59.910Z,65.78
2019-02-14T05:28:27.553Z,65.12
2019-02-14T05:30:55.290Z,65.18
2019-02-14T05:33:22.931Z,65.52
2019-02-14T05:35:50.621Z,65.24
2019-02-14T05:38:18.276Z,65.71
2019-02-14T05:40:45.926Z,65.52
2019-02-14T05:43:13.565Z,65.81
2019-02-14T05:45:41.218Z,65.78
2019-02-14T05:48:08.869Z,66.11
2019-02-14T05:50:36.528Z,66.80
2019-02-14T05:53:04.194Z,66.59
2019-02-14T05:55:31.847Z,67.05
2019-02-14T05:57:59.492Z,68.32
2019-02-14T06:00:27.142Z,67.17
2019-02-14T06:02:54.793Z,66.07
2019-02-14T06:05:22.437Z,65.69
2019-02-14T06:07:50.091Z,66.72
2019-02-14T06:10:17.738Z,65.89
2019-02-14T06:12:45.382Z,65.71
2019-02-14T06:15:13.035Z,65.68
2019-02-14T06:17:40.686Z,66.31
2019-02-14T06:20:08.325Z,67.30
2019-02-14T06:22:35.978Z,66.37
2019-02-14T06:25:03.638Z,65.83
2019-02-14T06:27:31.285Z,67.00
2019-02-14T06:29:58.936Z,67.04
2019-02-14T06:32:26.590Z,66.71
2019-02-14T06:34:54.230Z,65.65
2019-02-14T06:37:21.929Z,66.02
2019-02-14T06:39:49.604Z,65.28
2019-02-14T06:42:17.327Z,63.53
2019-02-14T06:44:45.002Z,63.11
2019-02-14T06:47:12.653Z,63.34
2019-02-14T06:49:40.315Z,63.00
2019-02-14T06:52:07.958Z,64.18
2019-02-14T06:54:35.634Z,65.01
2019-02-14T06:57:03.268Z,66.46
2019-02-14T06:59:30.938Z,66.93
2019-02-14T07:01:58.579Z,67.51
2019-02-14T07:04:26.229Z,65.88
2019-02-14T07:06:53.888Z,66.26
2019-02-14T07:09:21.545Z,65.37
2019-02-14T07:11:49.192Z,65.02
2019-02-14T07:14:16.841Z,65.69
2019-02-14T07:16:44.492Z,65.46
2019-02-14T07:19:12.615Z,63.76
2019-02-14T07:21:40.270Z,64.09
2019-02-14T07:24:07.927Z,63.85
2019-02-14T07:26:35.566Z,63.98
2019-02-14T07:29:03.229Z,64.87
2019-02-14T07:31:30.886Z,64.40
2019-02-14T07:33:58.541Z,63.83
2019-02-14T07:36:26.187Z,61.70
2019-02-14T07:38:53.844Z,62.47
2019-02-14T07:41:21.501Z,63.18
2019-02-14T07:43:49.159Z,62.31
2019-02-14T07:46:22.577Z,61.81
2019-02-14T07:48:46.176Z,61.15
2019-02-14T07:51:13.835Z,59.74
2019-02-14T07:53:41.548Z,59.55
2019-02-14T07:56:09.302Z,60.99
2019-02-14T07:58:37.058Z,60.33
2019-02-14T08:01:04.710Z,61.61
2019-02-14T08:03:32.366Z,61.20
2019-02-14T08:06:00.018Z,61.03
2019-02-14T08:08:27.662Z,58.12
2019-02-14T08:10:55.323Z,58.82
2019-02-14T08:13:22.965Z,59.11
2019-02-14T08:15:50.622Z,57.38
2019-02-14T08:18:18.261Z,57.26
2019-02-14T08:20:45.934Z,56.34
2019-02-14T08:23:13.582Z,57.00
2019-02-14T08:25:41.242Z,57.57
2019-02-14T08:28:08.922Z,56.95
2019-02-14T08:30:36.598Z,57.52
2019-02-14T08:33:04.243Z,56.92
2019-02-14T08:35:31.893Z,56.47
2019-02-14T08:37:59.554Z,57.48
2019-02-14T08:40:27.213Z,57.09
2019-02-14T08:42:54.861Z,55.75
2019-02-14T08:45:22.523Z,55.65
2019-02-14T08:47:50.173Z,55.73
2019-02-14T08:50:17.829Z,54.64
2019-02-14T08:52:45.483Z,54.61
2019-02-14T08:55:13.122Z,52.54
2019-02-14T08:57:40.778Z,53.95
2019-02-14T09:00:08.535Z,54.39
2019-02-14T09:02:36.178Z,54.18
2019-02-14T09:05:03.832Z,55.69
2019-02-14T09:07:31.482Z,56.28
2019-02-14T09:09:59.165Z,56.04
2019-02-14T09:12:26.806Z,54.01
2019-02-14T09:14:54.462Z,55.26
2019-02-14T09:17:22.110Z,55.18
2019-02-14T09:19:49.763Z,54.06
2019-02-14T09:22:17.411Z,53.72
2019-02-14T09:24:45.090Z,54.30
2019-02-14T09:27:12.734Z,53.63
2019-02-14T09:29:40.406Z,53.93
2019-02-14T09:32:08.058Z,52.49
2019-02-14T09:34:35.719Z,54.41
2019-02-14T09:37:03.378Z,52.57
2019-02-14T09:39:31.021Z,52.13
2019-02-14T09:41:58.691Z,53.70
2019-02-14T09:44:26.356Z,53.75
2019-02-14T09:46:54.011Z,52.78
2019-02-14T09:49:21.671Z,52.61
2019-02-14T09:51:49.323Z,52.81
2019-02-14T09:54:16.995Z,52.62
2019-02-14T09:56:44.724Z,53.52
2019-02-14T09:59:12.381Z,53.14
2019-02-14T10:01:40.023Z,54.16
2019-02-14T10:04:07.667Z,53.14
2019-02-14T10:06:36.900Z,52.57
2019-02-14T10:09:05.881Z,52.70
2019-02-14T10:11:33.548Z,53.72
2019-02-14T10:14:01.262Z,52.51
2019-02-14T10:16:28.931Z,52.24
2019-02-14T10:18:56.583Z,53.29
2019-02-14T10:21:24.238Z,54.25
2019-02-14T10:23:51.885Z,53.63
2019-02-14T10:26:19.542Z,52.52
2019-02-14T10:28:47.205Z,54.01
2019-02-14T10:31:14.878Z,52.26
2019-02-14T10:33:42.529Z,53.17
2019-02-14T10:36:10.189Z,54.35
2019-02-14T10:38:37.853Z,54.21
2019-02-14T10:41:05.510Z,54.09
2019-02-14T10:43:33.169Z,52.70
2019-02-14T10:46:00.824Z,52.66
2019-02-14T10:48:28.483Z,51.97
2019-02-14T10:50:56.161Z,52.70
2019-02-14T10:53:23.819Z,52.33
2019-02-14T10:55:51.550Z,52.67
2019-02-14T10:58:19.206Z,51.37
2019-02-14T11:00:46.892Z,51.00
2019-02-14T11:03:14.618Z,51.67
2019-02-14T11:05:42.269Z,51.28
2019-02-14T11:08:09.930Z,51.43
2019-02-14T11:10:37.600Z,51.01
2019-02-14T11:13:05.249Z,50.96
2019-02-14T11:15:32.905Z,50.01
2019-02-14T11:18:00.560Z,49.08
2019-02-14T11:20:28.213Z,48.99
2019-02-14T11:22:55.893Z,50.04
2019-02-14T11:25:23.530Z,49.78
2019-02-14T11:27:51.192Z,49.71
2019-02-14T11:30:18.854Z,49.89
2019-02-14T11:32:46.515Z,50.54
2019-02-14T11:35:14.175Z,50.84
2019-02-14T11:37:41.847Z,50.43
2019-02-14T11:40:09.505Z,49.81
2019-02-14T11:42:37.169Z,50.10
2019-02-14T11:45:04.818Z,48.50
2019-02-14T11:47:32.493Z,49.10
2019-02-14T11:50:00.290Z,47.57
2019-02-14T11:52:28.085Z,47.57
2019-02-14T11:54:55.751Z,47.81
2019-02-14T11:57:23.413Z,48.57
2019-02-14T11:59:51.071Z,48.72
2019-02-14T12:02:18.730Z,48.56
2019-02-14T12:04:46.389Z,47.83
2019-02-14T12:07:14.042Z,48.10
2019-02-14T12:09:41.693Z,47.89
2019-02-14T12:12:09.371Z,48.40
2019-02-14T12:14:37.038Z,48.97
2019-02-14T12:17:04.693Z,48.81
2019-02-14T12:19:32.354Z,49.16
2019-02-14T12:22:00.006Z,48.56
2019-02-14T12:24:27.668Z,49.70
2019-02-14T12:26:55.321Z,48.55
2019-02-14T12:29:22.977Z,48.65
2019-02-14T12:31:50.633Z,48.96
2019-02-14T12:34:18.318Z,48.87
2019-02-14T12:36:46.002Z,48.29
2019-02-14T12:39:13.647Z,48.85
2019-02-14T12:41:41.306Z,49.78
2019-02-14T12:44:08.979Z,50.06
2019-02-14T12:46:37.948Z,49.54
2019-02-14T12:49:05.770Z,49.11
2019-02-14T12:51:33.418Z,48.78
2019-02-14T12:54:01.083Z,49.15
2019-02-14T12:56:28.737Z,49.31
2019-02-14T12:58:56.497Z,49.39
2019-02-14T13:01:24.149Z,49.65
2019-02-14T13:03:51.810Z,49.47
2019-02-14T13:06:19.471Z,49.52
2019-02-14T13:08:47.126Z,49.36
2019-02-14T13:11:14.797Z,48.19
2019-02-14T13:13:42.457Z,48.65
2019-02-14T13:16:10.185Z,48.62
2019-02-14T13:18:37.855Z,49.27
2019-02-14T13:21:05.542Z,48.94
2019-02-14T13:23:33.206Z,49.74
2019-02-14T13:26:00.854Z,48.92
2019-02-14T13:28:28.518Z,49.78
2019-02-14T13:30:56.180Z,49.59
2019-02-14T13:33:23.850Z,49.52
2019-02-14T13:35:51.497Z,50.11
2019-02-14T13:38:19.165Z,49.71
2019-02-14T13:40:46.828Z,49.43
2019-02-14T13:43:14.486Z,49.90
2019-02-14T13:45:42.140Z,49.63
2019-02-14T13:48:09.828Z,49.28
2019-02-14T13:50:37.550Z,50.17
2019-02-14T13:53:05.207Z,50.22
2019-02-14T13:55:32.869Z,50.17
2019-02-14T13:58:00.532Z,49.93
2019-02-14T14:00:28.180Z,49.88
2019-02-14T14:02:55.871Z,50.53
2019-02-14T14:05:23.531Z,50.62
2019-02-14T14:07:51.190Z,50.53
2019-02-14T14:10:18.841Z,51.00
2019-02-14T14:12:46.493Z,50.29
2019-02-14T14:15:14.160Z,50.63
2019-02-14T14:17:41.815Z,50.62
2019-02-14T14:20:09.473Z,51.54
2019-02-14T14:22:37.153Z,51.57
2019-02-14T14:25:04.809Z,51.12
2019-02-14T14:27:32.458Z,50.98
2019-02-14T14:30:00.134Z,51.55
2019-02-14T14:32:27.969Z,51.69
2019-02-14T14:34:55.638Z,52.17
2019-02-14T14:37:23.333Z,51.41
2019-02-14T14:39:50.992Z,50.91
2019-02-14T14:42:37.685Z,51.52
2019-02-14T14:45:07.106Z,51.90
2019-02-14T14:47:34.763Z,51.48
2019-02-14T14:50:02.434Z,50.84
2019-02-14T14:52:30.097Z,51.36
2019-02-14T14:54:57.755Z,51.44
2019-02-14T14:57:25.401Z,51.46
2019-02-14T14:59:53.069Z,52.15
2019-02-14T15:02:20.730Z,51.79
2019-02-14T15:04:48.436Z,51.73
2019-02-14T15:07:16.131Z,52.49
2019-02-14T15:09:43.793Z,51.78
2019-02-14T15:12:11.481Z,52.51
2019-02-14T15:14:39.194Z,52.34
2019-02-14T15:17:06.866Z,52.46
2019-02-14T15:19:34.523Z,52.21
2019-02-14T15:22:02.189Z,53.40
2019-02-14T15:24:29.857Z,53.58
2019-02-14T15:26:57.568Z,52.36
2019-02-14T15:29:25.223Z,52.18
2019-02-14T15:31:52.958Z,52.90
2019-02-14T15:34:20.613Z,53.10
2019-02-14T15:36:49.537Z,53.18
2019-02-14T15:39:17.641Z,54.12
2019-02-14T15:41:45.298Z,53.75
2019-02-14T15:44:12.947Z,54.43
2019-02-14T15:46:40.592Z,54.88
2019-02-14T15:49:08.255Z,55.54
2019-02-14T15:51:35.892Z,54.65
2019-02-14T15:54:03.629Z,55.35
2019-02-14T15:56:31.607Z,55.72
2019-02-14T15:58:59.421Z,56.25
2019-02-14T16:01:27.074Z,57.21
2019-02-14T16:03:54.747Z,58.14
2019-02-14T16:06:22.395Z,58.69
2019-02-14T16:08:50.043Z,59.62
2019-02-14T16:11:17.692Z,60.22
2019-02-14T16:13:45.361Z,60.51
2019-02-14T16:16:13.025Z,60.41
2019-02-14T16:18:40.674Z,61.08
2019-02-14T16:21:08.337Z,61.30
2019-02-14T16:23:35.990Z,61.67
2019-02-14T16:26:03.651Z,62.29
2019-02-14T16:28:31.300Z,62.59
2019-02-14T16:30:58.954Z,62.88
2019-02-14T16:33:26.609Z,62.77
2019-02-14T16:35:54.266Z,63.33
2019-02-14T16:38:21.916Z,63.68
2019-02-14T16:40:49.566Z,64.52
2019-02-14T16:43:17.233Z,65.16
2019-02-14T16:45:44.881Z,65.07
2019-02-14T16:48:12.533Z,65.91
2019-02-14T16:50:40.177Z,66.13
2019-02-14T16:53:07.823Z,66.67
2019-02-14T16:55:35.469Z,67.89
2019-02-14T16:58:03.208Z,68.16
2019-02-14T17:00:30.928Z,68.71
2019-02-14T17:02:58.583Z,68.94
2019-02-14T17:05:26.237Z,68.74
2019-02-14T17:07:55.948Z,69.44
2019-02-14T17:10:23.237Z,69.49
2019-02-14T17:12:50.899Z,69.48
2019-02-14T17:15:18.547Z,69.73
2019-02-14T17:17:46.206Z,70.30
2019-02-14T17:20:13.853Z,70.99
2019-02-14T17:22:41.498Z,71.37
2019-02-14T17:25:09.146Z,70.94
2019-02-14T17:27:36.814Z,71.01
2019-02-14T17:30:04.494Z,71.52
2019-02-14T17:32:32.141Z,71.40
2019-02-14T17:34:59.806Z,71.78
2019-02-14T17:37:27.459Z,71.57
2019-02-14T17:39:55.111Z,71.98
2019-02-14T17:42:22.766Z,72.23
2019-02-14T17:44:50.430Z,72.19
2019-02-14T17:47:18.081Z,72.66
2019-02-14T17:49:45.738Z,73.21
2019-02-14T17:52:13.382Z,73.37
2019-02-14T17:54:41.043Z,73.32
2019-02-14T17:57:08.697Z,73.33
2019-02-14T17:59:36.353Z,73.84
2019-02-14T18:02:04.014Z,73.54
2019-02-14T18:04:31.682Z,73.76
2019-02-14T18:06:59.338Z,71.18
2019-02-14T18:09:26.991Z,68.25
2019-02-14T18:11:54.646Z,69.45
2019-02-14T18:14:22.297Z,69.66
2019-02-14T18:16:49.949Z,69.17
2019-02-14T18:19:17.601Z,68.22
2019-02-14T18:21:45.246Z,66.09
2019-02-14T18:24:12.907Z,67.50
2019-02-14T18:26:40.566Z,69.21
2019-02-14T18:29:08.213Z,69.69
2019-02-14T18:31:35.870Z,70.62
2019-02-14T18:34:03.533Z,70.16
2019-02-14T18:36:31.186Z,68.17
2019-02-14T18:38:58.842Z,67.37
2019-02-14T18:41:26.499Z,68.45
2019-02-14T18:43:54.159Z,68.52
2019-02-14T18:46:21.818Z,68.82
2019-02-14T18:48:49.475Z,68.61
2019-02-14T18:51:17.126Z,69.46
2019-02-14T18:53:44.808Z,70.60
2019-02-14T18:56:12.458Z,71.84
2019-02-14T18:58:40.106Z,73.50
2019-02-14T19:01:07.859Z,70.18
2019-02-14T19:03:35.589Z,71.01
2019-02-14T19:06:03.257Z,70.63
2019-02-14T19:08:30.994Z,70.86
2019-02-14T19:10:58.646Z,71.58
2019-02-14T19:13:26.298Z,72.93
2019-02-14T19:15:53.955Z,71.08
2019-02-14T19:18:21.682Z,71.68
2019-02-14T19:20:49.346Z,72.34
2019-02-14T19:23:24.218Z,73.86
2019-02-14T19:25:46.354Z,74.02
2019-02-14T19:28:14.017Z,72.97
2019-02-14T19:30:41.673Z,73.91
2019-02-14T19:33:09.410Z,74.38
2019-02-14T19:35:37.079Z,73.63
2019-02-14T19:38:04.749Z,73.97
2019-02-14T19:40:32.482Z,74.45
2019-02-14T19:43:00.149Z,75.54
2019-02-14T19:45:36.252Z,76.79
2019-02-14T19:47:57.177Z,74.09
2019-02-14T19:50:24.841Z,74.90
2019-02-14T19:52:52.481Z,72.25
2019-02-14T19:55:20.158Z,73.53
2019-02-14T19:57:47.862Z,74.31
2019-02-14T20:00:15.530Z,75.19
2019-02-14T20:02:43.193Z,73.17
2019-02-14T20:05:10.854Z,73.78
2019-02-14T20:07:38.491Z,75.43
2019-02-14T20:10:06.153Z,74.99
2019-02-14T20:12:33.801Z,76.21
2019-02-14T20:15:01.462Z,76.24
2019-02-14T20:17:29.104Z,76.93
2019-02-14T20:19:56.754Z,77.22
2019-02-14T20:22:24.399Z,76.17
2019-02-14T20:24:52.057Z,75.51
2019-02-14T20:27:19.710Z,75.30
2019-02-14T20:29:47.446Z,76.00
2019-02-14T20:32:15.117Z,77.27
2019-02-14T20:34:42.770Z,76.87
2019-02-14T20:37:10.436Z,76.70
2019-02-14T20:39:38.077Z,76.73
2019-02-14T20:42:05.742Z,75.20
2019-02-14T20:44:33.402Z,76.37
2019-02-14T20:47:01.059Z,77.67
2019-02-14T20:49:28.699Z,75.85
2019-02-14T20:51:56.356Z,74.28
2019-02-14T20:54:24.021Z,76.07
2019-02-14T20:56:51.677Z,76.43
2019-02-14T20:59:19.325Z,77.02
2019-02-14T21:01:46.994Z,77.09
2019-02-14T21:04:14.640Z,78.09
2019-02-14T21:06:42.295Z,77.04
2019-02-14T21:09:09.970Z,77.89
2019-02-14T21:11:37.686Z,77.21
2019-02-14T21:14:05.337Z,77.55
2019-02-14T21:16:32.989Z,77.92
2019-02-14T21:19:00.625Z,77.37
2019-02-14T21:21:28.286Z,77.71
2019-02-14T21:23:55.952Z,78.15
2019-02-14T21:26:23.650Z,77.85
2019-02-14T21:28:51.312Z,77.86
2019-02-14T21:31:18.966Z,77.76
2019-02-14T21:33:46.630Z,77.90
2019-02-14T21:36:14.378Z,78.07
2019-02-14T21:38:42.107Z,78.58
2019-02-14T21:41:09.790Z,78.92
2019-02-14T21:43:37.534Z,78.44
2019-02-14T21:46:05.270Z,79.25
2019-02-14T21:48:32.923Z,78.04
2019-02-14T21:51:00.624Z,78.12
2019-02-14T21:53:28.439Z,78.58
2019-02-14T21:55:56.180Z,78.49
2019-02-14T21:58:23.912Z,77.70
2019-02-14T22:00:51.659Z,76.67
2019-02-14T22:03:19.311Z,77.87
2019-02-14T22:05:46.972Z,78.25
2019-02-14T22:08:14.626Z,79.51
2019-02-14T22:10:42.286Z,79.37
2019-02-14T22:13:09.939Z,78.96
2019-02-14T22:15:37.590Z,79.78
2019-02-14T22:18:05.253Z,78.91
2019-02-14T22:20:32.914Z,80.16
2019-02-14T22:23:00.573Z,80.05
2019-02-14T22:25:28.217Z,78.42
2019-02-14T22:27:55.886Z,79.90
2019-02-14T22:30:23.538Z,78.38
2019-02-14T22:32:51.203Z,78.19
2019-02-14T22:35:18.861Z,78.70
2019-02-14T22:37:46.517Z,79.13
2019-02-14T22:40:14.175Z,79.96
2019-02-14T22:42:47.307Z,80.62
2019-02-14T22:45:13.262Z,80.38
2019-02-14T22:47:40.560Z,79.63
2019-02-14T22:50:08.226Z,80.23
2019-02-14T22:52:35.865Z,80.04
2019-02-14T22:55:03.526Z,80.02
2019-02-14T22:57:31.185Z,81.38
2019-02-14T22:59:58.845Z,80.06
2019-02-14T23:02:26.506Z,80.28
2019-02-14T23:04:54.158Z,79.99
2019-02-14T23:07:21.832Z,80.86
2019-02-14T23:09:49.485Z,80.47
2019-02-14T23:12:17.146Z,80.83
2019-02-14T23:14:44.789Z,79.91
2019-02-14T23:17:12.450Z,80.14
2019-02-14T23:19:40.117Z,79.95
2019-02-14T23:22:07.780Z,81.37
2019-02-14T23:24:35.425Z,81.17
2019-02-14T23:27:03.082Z,81.91
2019-02-14T23:29:30.734Z,82.32
2019-02-14T23:31:58.394Z,80.84
2019-02-14T23:34:26.037Z,82.12
2019-02-14T23:36:53.698Z,82.05
2019-02-14T23:39:21.358Z,82.60
2019-02-14T23:41:49.023Z,82.64
2019-02-14T23:44:16.673Z,81.92
2019-02-14T23:46:44.338Z,81.40
2019-02-14T23:49:12.279Z,81.74
2019-02-14T23:51:39.937Z,82.49
2019-02-14T23:54:07.592Z,82.72
2019-02-14T23:56:35.262Z,81.98
2019-02-14T23:59:02.929Z,82.31
